createdAt,value
2018-08-20T12:07:37.076Z,7.50
2018-08-20T12:10:06.642Z,7.40
2018-08-20T12:12:34.834Z,7.30
2018-08-20T12:15:03.031Z,7.23
2018-08-20T12:17:31.228Z,7.90
2018-08-20T12:19:59.454Z,7.77
2018-08-20T12:22:27.649Z,7.57
2018-08-20T12:24:55.826Z,7.43
2018-08-20T12:27:24.007Z,7.50
2018-08-20T12:29:52.203Z,6.80
2018-08-20T12:32:20.383Z,7.83
2018-08-20T12:34:48.579Z,7.30
2018-08-20T12:37:16.775Z,7.40
2018-08-20T12:39:44.982Z,7.57
2018-08-20T12:42:13.182Z,7.17
2018-08-20T12:44:41.398Z,7.03
2018-08-20T12:47:09.663Z,7.60
2018-08-20T12:49:37.918Z,8.30
2018-08-20T12:52:06.834Z,9.00
2018-08-20T12:54:35.035Z,8.00
2018-08-20T12:57:03.248Z,7.87
2018-08-20T12:59:31.455Z,8.00
2018-08-20T13:01:59.667Z,9.10
2018-08-20T13:04:27.859Z,10.00
2018-08-20T13:06:56.135Z,9.63
2018-08-20T13:09:24.334Z,9.73
2018-08-20T13:11:52.527Z,8.47
2018-08-20T13:14:20.741Z,8.87
2018-08-20T13:16:48.979Z,8.33
2018-08-20T13:19:17.234Z,9.47
2018-08-20T13:21:45.419Z,9.27
2018-08-20T13:24:13.615Z,8.93
2018-08-20T13:26:41.795Z,8.47
2018-08-20T13:29:09.990Z,7.93
2018-08-20T13:31:38.195Z,9.20
2018-08-20T13:34:06.924Z,8.30
2018-08-20T13:36:35.111Z,9.40
2018-08-20T13:39:03.539Z,8.97
2018-08-20T13:41:31.748Z,9.07
2018-08-20T13:43:59.948Z,8.20
2018-08-20T13:46:28.115Z,7.60
2018-08-20T13:48:56.330Z,9.50
2018-08-20T13:51:24.542Z,9.20
2018-08-20T13:53:52.751Z,8.67
2018-08-20T13:56:20.919Z,8.30
2018-08-20T13:58:49.310Z,8.90
2018-08-20T14:01:17.542Z,8.40
2018-08-20T14:03:45.717Z,8.80
2018-08-20T14:06:13.903Z,8.83
2018-08-20T14:08:42.102Z,8.70
2018-08-20T14:11:10.300Z,8.47
2018-08-20T14:13:38.498Z,8.70
2018-08-20T14:16:06.735Z,8.33
2018-08-20T14:18:34.927Z,8.80
2018-08-20T14:21:11.067Z,8.50
2018-08-20T14:23:40.883Z,8.80
2018-08-20T14:26:09.071Z,9.53
2018-08-20T14:28:37.270Z,8.33
2018-08-20T14:31:05.551Z,8.67
2018-08-20T14:33:33.802Z,8.50
2018-08-20T14:36:02.138Z,9.20
2018-08-20T14:38:30.545Z,8.97
2018-08-20T14:40:58.827Z,8.60
2018-08-20T14:43:27.162Z,7.90
2018-08-20T14:46:00.824Z,8.37
2018-08-20T14:48:29.111Z,8.87
2018-08-20T14:50:57.563Z,8.80
2018-08-20T14:53:26.121Z,7.53
2018-08-20T14:55:54.418Z,8.50
2018-08-20T14:58:22.794Z,7.50
2018-08-20T15:00:50.983Z,9.80
2018-08-20T15:03:19.214Z,9.30
2018-08-20T15:05:47.431Z,9.00
2018-08-20T15:08:15.641Z,9.73
2018-08-20T15:10:43.826Z,9.50
2018-08-20T15:13:12.303Z,8.90
2018-08-20T15:15:40.697Z,10.17
2018-08-20T15:18:08.711Z,11.03
2018-08-20T15:20:36.933Z,9.77
2018-08-20T15:23:05.131Z,9.43
2018-08-20T15:25:33.307Z,8.90
2018-08-20T15:28:01.590Z,9.83
2018-08-20T15:30:29.821Z,10.00
2018-08-20T15:32:58.018Z,9.50
2018-08-20T15:35:26.680Z,9.30
2018-08-20T15:37:54.954Z,9.50
2018-08-20T15:40:23.144Z,9.20
2018-08-20T15:42:51.399Z,11.67
2018-08-20T15:45:19.731Z,9.17
2018-08-20T15:47:47.977Z,9.67
2018-08-20T15:50:16.223Z,9.07
2018-08-20T15:52:44.459Z,9.20
2018-08-20T15:55:12.663Z,9.33
2018-08-20T15:57:40.865Z,8.60
2018-08-20T16:00:10.098Z,9.27
2018-08-20T16:02:38.918Z,9.53
2018-08-20T16:05:07.196Z,9.17
2018-08-20T16:07:35.391Z,8.57
2018-08-20T16:10:03.612Z,9.67
2018-08-20T16:12:31.806Z,9.13
2018-08-20T16:15:00.016Z,9.27
2018-08-20T16:17:28.217Z,9.53
2018-08-20T16:19:56.403Z,9.37
2018-08-20T16:22:24.607Z,9.13
2018-08-20T16:24:52.799Z,9.30
2018-08-20T16:27:21.010Z,9.60
2018-08-20T16:29:49.207Z,8.93
2018-08-20T16:32:18.286Z,9.10
2018-08-20T16:34:46.474Z,8.50
2018-08-20T16:37:14.695Z,9.00
2018-08-20T16:39:42.988Z,9.20
2018-08-20T16:42:11.183Z,8.90
2018-08-20T16:44:39.401Z,9.87
2018-08-20T16:47:07.612Z,8.87
2018-08-20T16:49:35.823Z,8.73
2018-08-20T16:52:04.051Z,8.70
2018-08-20T16:54:32.302Z,8.50
2018-08-20T16:57:00.588Z,8.60
2018-08-20T16:59:29.476Z,8.13
2018-08-20T17:01:57.740Z,8.80
2018-08-20T17:04:33.063Z,8.67
2018-08-20T17:07:02.337Z,8.70
2018-08-20T17:09:30.590Z,11.43
2018-08-20T17:11:58.894Z,11.90
2018-08-20T17:14:27.077Z,8.20
2018-08-20T17:16:55.475Z,11.33
2018-08-20T17:19:23.696Z,8.83
2018-08-20T17:21:51.911Z,8.57
2018-08-20T17:24:25.246Z,7.43
2018-08-20T17:26:53.511Z,7.90
2018-08-20T17:29:23.015Z,7.20
2018-08-20T17:31:51.238Z,7.40
2018-08-20T17:34:19.448Z,7.87
2018-08-20T17:36:47.646Z,7.90
2018-08-20T17:39:15.927Z,8.43
2018-08-20T17:41:44.142Z,7.80
2018-08-20T17:44:12.360Z,6.90
2018-08-20T17:46:40.788Z,8.33
2018-08-20T17:49:11.723Z,7.80
2018-08-20T17:51:39.923Z,7.93
2018-08-20T17:54:08.123Z,6.53
2018-08-20T17:56:36.351Z,7.83
2018-08-20T17:59:10.626Z,6.83
2018-08-20T18:01:38.866Z,6.87
2018-08-20T18:04:07.478Z,6.53
2018-08-20T18:06:47.168Z,7.23
2018-08-20T18:09:15.458Z,6.67
2018-08-20T18:11:49.671Z,7.10
2018-08-20T18:14:18.968Z,7.03
2018-08-20T18:16:47.169Z,6.80
2018-08-20T18:19:15.663Z,7.13
2018-08-20T18:21:43.882Z,6.10
2018-08-20T18:24:13.245Z,7.10
2018-08-20T18:26:44.611Z,7.30
2018-08-20T18:29:12.998Z,7.70
2018-08-20T18:31:41.275Z,6.90
2018-08-20T18:34:09.498Z,7.33
2018-08-20T18:36:37.761Z,7.30
2018-08-20T18:39:10.675Z,7.67
2018-08-20T18:42:13.774Z,6.80
2018-08-20T18:44:42.005Z,6.50
2018-08-20T18:47:15.437Z,8.20
2018-08-20T18:49:52.684Z,8.00
2018-08-20T18:52:22.079Z,6.23
2018-08-20T18:54:51.603Z,8.20
2018-08-20T18:57:22.104Z,7.90
2018-08-20T18:59:50.682Z,8.40
2018-08-20T19:02:39.710Z,7.70
2018-08-20T19:05:12.467Z,6.80
2018-08-20T19:07:40.866Z,7.53
2018-08-20T19:10:12.812Z,7.50
2018-08-20T19:12:48.849Z,7.17
2018-08-20T19:15:27.571Z,7.60
2018-08-20T19:17:55.815Z,6.80
2018-08-20T19:20:24.041Z,6.33
2018-08-20T19:22:52.267Z,6.47
2018-08-20T19:25:20.446Z,7.07
2018-08-20T19:27:48.682Z,5.70
2018-08-20T19:30:23.455Z,6.10
2018-08-20T19:32:51.735Z,6.50
2018-08-20T19:35:19.959Z,5.70
2018-08-20T19:37:48.580Z,6.17
2018-08-20T19:40:16.875Z,6.40
2018-08-20T19:42:45.075Z,6.70
2018-08-20T19:45:13.914Z,6.57
2018-08-20T19:47:42.118Z,6.83
2018-08-20T19:50:11.736Z,7.23
2018-08-20T19:52:40.056Z,6.30
2018-08-20T19:55:10.755Z,5.70
2018-08-20T19:57:38.983Z,7.73
2018-08-20T20:00:10.958Z,7.80
2018-08-20T20:02:41.087Z,6.97
2018-08-20T20:05:10.902Z,7.00
2018-08-20T20:07:39.166Z,7.77
2018-08-20T20:10:11.230Z,7.30
2018-08-20T20:12:43.589Z,6.87
2018-08-20T20:15:11.803Z,7.13
2018-08-20T20:17:40.043Z,7.13
2018-08-20T20:20:08.263Z,7.50
2018-08-20T20:22:37.991Z,6.53
2018-08-20T20:25:06.693Z,7.00
2018-08-20T20:27:35.139Z,6.67
2018-08-20T20:30:03.484Z,7.00
2018-08-20T20:32:31.746Z,6.63
2018-08-20T20:35:00.198Z,6.50
2018-08-20T20:37:28.516Z,6.57
2018-08-20T20:39:58.812Z,6.90
2018-08-20T20:42:27.410Z,6.77
2018-08-20T20:44:55.778Z,7.30
2018-08-20T20:47:24.043Z,6.40
2018-08-20T20:49:52.483Z,6.93
2018-08-20T20:52:20.817Z,7.70
2018-08-20T20:54:49.033Z,6.90
2018-08-20T20:57:17.310Z,6.50
2018-08-20T20:59:45.643Z,7.30
2018-08-20T21:02:13.843Z,7.10
2018-08-20T21:04:42.083Z,7.40
2018-08-20T21:07:10.354Z,7.30
2018-08-20T21:09:43.887Z,7.80
2018-08-20T21:15:12.816Z,7.50
2018-08-20T21:17:41.508Z,8.10
2018-08-20T21:20:09.838Z,8.00
2018-08-20T21:22:39.584Z,6.90
2018-08-20T21:25:09.170Z,7.47
2018-08-20T21:27:37.386Z,7.57
2018-08-20T21:30:12.960Z,8.07
2018-08-20T21:32:47.015Z,7.87
2018-08-20T21:35:15.611Z,7.93
2018-08-20T21:37:47.391Z,8.10
2018-08-20T21:40:19.775Z,7.73
2018-08-20T21:42:47.982Z,8.00
2018-08-20T21:45:16.295Z,7.43
2018-08-20T21:47:44.558Z,7.80
2018-08-20T21:50:12.791Z,8.63
2018-08-20T21:52:40.987Z,8.30
2018-08-20T21:57:58.075Z,7.83
2018-08-20T22:00:27.326Z,8.40
2018-08-20T22:02:58.554Z,9.17
2018-08-20T22:05:27.150Z,8.83
2018-08-20T22:07:58.280Z,8.70
2018-08-20T22:10:27.870Z,8.07
2018-08-20T22:12:56.187Z,8.53
2018-08-20T22:15:24.462Z,8.40
2018-08-20T22:17:52.735Z,8.17
2018-08-20T22:20:20.987Z,7.80
2018-08-20T22:22:49.235Z,8.73
2018-08-20T22:25:17.455Z,7.73
2018-08-20T22:27:50.951Z,7.93
2018-08-20T22:30:19.215Z,8.50
2018-08-20T22:32:47.485Z,9.30
2018-08-20T22:35:20.729Z,8.27
2018-08-20T22:37:51.268Z,8.40
2018-08-20T22:40:20.295Z,9.10
2018-08-20T22:42:51.132Z,8.63
2018-08-20T22:45:20.315Z,7.80
2018-08-20T22:47:49.563Z,8.07
2018-08-20T22:50:17.945Z,8.13
2018-08-20T22:52:47.878Z,8.40
2018-08-20T22:55:17.406Z,8.17
2018-08-20T22:58:17.574Z,7.87
2018-08-20T23:00:45.847Z,8.17
2018-08-20T23:03:14.052Z,8.20
2018-08-20T23:05:42.298Z,8.70
2018-08-20T23:08:15.858Z,8.87
2018-08-20T23:10:44.170Z,8.57
2018-08-20T23:13:12.429Z,8.43
2018-08-20T23:15:40.783Z,7.80
2018-08-20T23:18:09.038Z,8.20
2018-08-20T23:20:37.322Z,8.80
2018-08-20T23:23:05.549Z,9.40
2018-08-20T23:25:33.965Z,9.23
2018-08-20T23:28:11.009Z,8.33
2018-08-20T23:30:40.787Z,8.77
2018-08-20T23:33:09.701Z,8.50
2018-08-20T23:35:37.910Z,8.90
2018-08-20T23:38:06.115Z,8.47
2018-08-20T23:40:34.382Z,8.73
2018-08-20T23:43:02.655Z,9.23
2018-08-20T23:45:37.391Z,8.37
2018-08-20T23:48:05.670Z,8.80
2018-08-20T23:50:33.937Z,8.93
2018-08-20T23:53:02.150Z,8.73
2018-08-20T23:55:30.453Z,8.13
2018-08-20T23:57:58.723Z,9.57
